Gouch Mill, Missouri
Current Conditions -  °F | °C
As of 8:15 AM on Thursday 30 Oct 2014 (Local Time) from KVER Reporting Station
Overcast Overcast  
Wind Chill: 41°   Ceiling: 9500
Heat Index: 44°   Visibility: 10mi
Dew Point: 35°   Wind: 6mph
Humidity: 72%   Direction: 130°SE
Pressure: 30.07"   Gusts: NA
Location:  38.8294°N, 92.5997°W
Report Text: KVER 301315Z AUTO 13005KT 10SM OVC095 07/02 A3007 RMK AO2 T00670019
Loading
Personal Weather Stations






























Interactive Weather Map
Tropical Storm Tracking
New forecast layout! Learn more

10-Day Weather Forecast

Advertisements
Track Severe Weather on mobile